Time;durP1;ratioP1;P1;durP2;ratioP2;P2;SDS_P1;SDS_P2;PMS_P1;PMS_P2;Temp;Humidity;BMP_temperature;BMP_pressure;BME280_temperature;BME280_humidity;BME280_pressure;Samples;Min_cycle;Max_cycle;Signal;HPM_P1;HPM_P2
2023/10/22 00:01:40;;;;;;;0.77;0.40;;;;;;;8.45;100.00;100418.44;5052945;28;20496;-79
2023/10/22 00:04:06;;;;;;;1.30;0.50;;;;;;;8.27;100.00;100396.59;5035224;28;20029;-79
2023/10/22 00:06:31;;;;;;;1.77;0.55;;;;;;;8.42;100.00;100425.00;5051997;28;20048;-79
2023/10/22 00:08:57;;;;;;;1.58;0.50;;;;;;;8.36;100.00;100395.44;5052487;28;20063;-78
2023/10/22 00:11:22;;;;;;;1.77;0.60;;;;;;;8.46;100.00;100412.88;5034842;28;20053;-79
2023/10/22 00:13:47;;;;;;;0.82;0.38;;;;;;;8.29;100.00;100416.00;5034705;28;20482;-79
2023/10/22 00:16:13;;;;;;;0.75;0.50;;;;;;;8.19;100.00;100409.13;5054106;28;20582;-79
2023/10/22 00:18:38;;;;;;;0.95;0.70;;;;;;;8.39;100.00;100413.84;5036472;28;20037;-79
2023/10/22 00:21:08;;;;;;;1.88;0.50;;;;;;;8.51;100.00;100409.63;5034916;28;20495;-79
2023/10/22 00:23:34;;;;;;;1.52;0.60;;;;;;;8.37;100.00;100408.63;5035156;28;20029;-79
2023/10/22 00:26:00;;;;;;;1.70;0.80;;;;;;;8.25;100.00;100407.53;5036097;28;20033;-79
2023/10/22 00:28:25;;;;;;;1.67;0.60;;;;;;;8.31;100.00;100396.03;5052952;28;20044;-79
2023/10/22 00:30:52;;;;;;;0.80;0.60;;;;;;;8.47;100.00;100416.38;5052694;28;20036;-78
2023/10/22 00:33:17;;;;;;;1.40;0.60;;;;;;;8.39;100.00;100403.94;5035360;28;20514;-79
2023/10/22 00:35:53;;;;;;;1.02;0.50;;;;;;;8.32;100.00;100411.09;5034801;28;20033;-79
2023/10/22 00:38:18;;;;;;;0.90;0.70;;;;;;;8.31;100.00;100401.41;5051388;28;20071;-79
2023/10/22 00:40:43;;;;;;;2.60;0.47;;;;;;;8.31;100.00;100406.75;5051262;28;20609;-78
2023/10/22 00:43:09;;;;;;;1.60;0.60;;;;;;;8.39;100.00;100408.50;5051773;28;20033;-78
2023/10/22 00:45:37;;;;;;;0.95;0.50;;;;;;;8.49;100.00;100413.50;5034539;28;20488;-78
2023/10/22 00:48:03;;;;;;;1.40;0.40;;;;;;;8.66;100.00;100406.81;5052222;28;20032;-78
2023/10/22 00:50:28;;;;;;;0.55;0.52;;;;;;;8.63;100.00;100383.91;5051236;28;20032;-78
2023/10/22 00:52:54;;;;;;;0.52;0.52;;;;;;;8.67;100.00;100400.41;5052563;28;20033;-78
2023/10/22 00:55:21;;;;;;;1.40;0.45;;;;;;;8.64;100.00;100408.84;5067896;28;20068;-78
2023/10/22 00:57:47;;;;;;;0.68;0.50;;;;;;;8.67;100.00;100397.75;5034782;28;20064;-78
2023/10/22 01:00:14;;;;;;;1.27;0.50;;;;;;;8.70;100.00;100400.03;5036892;28;20029;-78
2023/10/22 01:02:39;;;;;;;1.85;0.52;;;;;;;8.56;100.00;100417.06;5051364;28;20488;-78
2023/10/22 01:05:08;;;;;;;5.20;0.50;;;;;;;8.66;100.00;100415.69;5034018;28;20400;-78
2023/10/22 01:07:34;;;;;;;0.80;0.50;;;;;;;8.78;100.00;100417.84;5050811;28;20036;-78
2023/10/22 01:09:59;;;;;;;0.50;0.38;;;;;;;8.79;100.00;100414.94;5050416;28;20032;-78
2023/10/22 01:12:33;;;;;;;0.63;0.40;;;;;;;8.84;100.00;100412.53;5050605;28;20396;-78
2023/10/22 01:14:58;;;;;;;1.77;0.50;;;;;;;8.76;100.00;100409.97;5051050;28;20052;-78
2023/10/22 01:17:24;;;;;;;1.80;0.50;;;;;;;8.77;100.00;100410.81;5061333;28;20064;-78
2023/10/22 01:19:50;;;;;;;1.45;0.60;;;;;;;8.67;100.00;100411.97;5055112;28;20040;-79
2023/10/22 01:22:16;;;;;;;1.98;0.45;;;;;;;8.67;100.00;100401.25;5070824;28;20041;-78
2023/10/22 01:24:41;;;;;;;2.08;0.50;;;;;;;8.81;100.00;100415.59;5053730;28;20037;-78
2023/10/22 01:27:06;;;;;;;2.03;0.50;;;;;;;8.71;100.00;100412.44;5071085;28;20127;-78
2023/10/22 01:29:32;;;;;;;1.40;0.45;;;;;;;8.87;100.00;100396.03;5054088;28;20480;-78
2023/10/22 01:31:57;;;;;;;0.60;0.50;;;;;;;8.73;100.00;100410.38;5051671;28;20052;-78
2023/10/22 01:34:22;;;;;;;0.90;0.47;;;;;;;8.89;100.00;100415.41;5034024;28;20098;-78
2023/10/22 01:36:48;;;;;;;1.20;0.43;;;;;;;8.87;100.00;100411.28;5034260;28;20025;-78
2023/10/22 01:39:14;;;;;;;1.00;0.60;;;;;;;8.78;100.00;100397.22;5033808;28;20033;-78
2023/10/22 01:41:41;;;;;;;1.25;0.50;;;;;;;8.66;100.00;100404.13;5053867;28;20037;-78
2023/10/22 01:44:07;;;;;;;2.15;0.77;;;;;;;8.68;100.00;100402.09;5069635;28;20086;-79
2023/10/22 01:46:32;;;;;;;1.05;0.50;;;;;;;8.76;100.00;100404.63;5073500;28;20024;-78
2023/10/22 01:48:58;;;;;;;1.75;0.50;;;;;;;8.93;100.00;100408.63;5058623;28;20466;-78
2023/10/22 01:51:23;;;;;;;0.95;0.50;;;;;;;8.65;100.00;100394.44;5045031;28;20036;-78
2023/10/22 01:53:49;;;;;;;1.60;0.50;;;;;;;8.78;100.00;100405.25;5067524;28;20559;-78
2023/10/22 01:56:15;;;;;;;2.45;0.45;;;;;;;8.71;100.00;100377.56;5051795;28;20103;-79
2023/10/22 01:58:40;;;;;;;1.08;0.40;;;;;;;8.75;100.00;100378.81;5033565;28;20558;-79
2023/10/22 02:01:06;;;;;;;0.40;0.30;;;;;;;8.81;100.00;100399.50;5033958;28;20036;-79
2023/10/22 02:03:35;;;;;;;1.02;0.40;;;;;;;8.63;100.00;100393.78;5068145;28;20565;-78
2023/10/22 02:06:01;;;;;;;1.42;0.55;;;;;;;8.64;100.00;100380.22;5069559;28;20025;-78
2023/10/22 02:08:26;;;;;;;0.45;0.38;;;;;;;8.63;100.00;100393.78;5052891;28;20094;-78
2023/10/22 02:10:52;;;;;;;0.60;0.50;;;;;;;8.71;100.00;100390.97;5069891;28;20028;-79
2023/10/22 02:13:17;;;;;;;0.60;0.50;;;;;;;8.69;100.00;100390.34;5065085;28;20050;-79
2023/10/22 02:15:43;;;;;;;0.93;0.47;;;;;;;8.68;100.00;100386.00;5035659;28;20487;-79
2023/10/22 02:18:09;;;;;;;1.27;0.40;;;;;;;8.77;100.00;100395.53;5052831;28;20490;-79
2023/10/22 02:20:34;;;;;;;1.70;0.32;;;;;;;8.87;100.00;100379.06;5053334;28;20043;-79
2023/10/22 02:23:01;;;;;;;1.35;0.38;;;;;;;8.67;100.00;100378.97;5069973;28;20024;-79
2023/10/22 02:25:26;;;;;;;1.40;0.60;;;;;;;8.70;100.00;100373.22;5053543;28;20020;-78
2023/10/22 02:27:53;;;;;;;1.80;0.60;;;;;;;8.77;100.00;100351.78;5069023;28;20517;-78
2023/10/22 02:30:19;;;;;;;2.20;0.30;;;;;;;8.90;100.00;100362.59;5057565;28;20047;-79
2023/10/22 02:32:44;;;;;;;2.25;0.30;;;;;;;8.97;100.00;100362.63;5074212;28;20096;-79
2023/10/22 02:35:10;;;;;;;0.52;0.40;;;;;;;8.84;100.00;100369.59;5071014;28;20056;-78
2023/10/22 02:37:36;;;;;;;1.05;0.50;;;;;;;8.72;100.00;100368.47;5070512;28;20037;-79
2023/10/22 02:40:03;;;;;;;0.60;0.40;;;;;;;8.73;100.00;100378.19;5070340;28;20037;-79
2023/10/22 02:42:29;;;;;;;2.35;0.50;;;;;;;8.87;100.00;100369.19;5071080;28;20032;-79
2023/10/22 02:44:55;;;;;;;1.42;0.60;;;;;;;9.00;100.00;100372.94;5069304;28;20029;-79
2023/10/22 02:47:21;;;;;;;0.55;0.43;;;;;;;8.59;100.00;100312.91;5069581;28;20029;-79
2023/10/22 02:49:46;;;;;;;1.70;0.50;;;;;;;8.93;100.00;100372.91;5069745;28;20038;-79
2023/10/22 02:52:12;;;;;;;0.57;0.30;;;;;;;9.07;100.00;100373.81;5075277;28;20043;-78
2023/10/22 02:54:37;;;;;;;0.40;0.40;;;;;;;8.96;100.00;100369.84;5058151;28;20495;-79
2023/10/22 02:57:03;;;;;;;0.40;0.30;;;;;;;8.96;100.00;100372.53;5076878;28;20083;-79
2023/10/22 02:59:29;;;;;;;1.20;0.40;;;;;;;9.05;100.00;100383.94;5073824;28;20036;-79
2023/10/22 03:01:54;;;;;;;1.17;0.38;;;;;;;8.92;100.00;100365.91;5075149;28;20024;-79
2023/10/22 03:04:20;;;;;;;0.70;0.30;;;;;;;8.80;100.00;100354.06;5057813;28;20032;-79
2023/10/22 03:06:45;;;;;;;0.77;0.40;;;;;;;8.91;100.00;100378.50;5040247;28;20398;-79
2023/10/22 03:09:13;;;;;;;0.57;0.30;;;;;;;8.68;100.00;100369.91;5073102;28;20029;-79
2023/10/22 03:11:38;;;;;;;0.40;0.30;;;;;;;9.02;100.00;100387.84;5077477;28;20028;-79
2023/10/22 03:14:05;;;;;;;0.40;0.20;;;;;;;8.60;100.00;100365.50;5077366;28;20028;-79
2023/10/22 03:16:30;;;;;;;1.00;0.25;;;;;;;8.82;100.00;100393.09;5040275;28;20120;-79
2023/10/22 03:18:55;;;;;;;0.50;0.25;;;;;;;8.81;100.00;100396.00;5057122;28;20097;-79
2023/10/22 03:21:24;;;;;;;0.75;0.30;;;;;;;8.91;100.00;100391.91;5074805;28;20487;-79
2023/10/22 03:23:49;;;;;;;0.40;0.20;;;;;;;8.94;100.00;100386.16;5056821;28;20063;-79
2023/10/22 03:26:16;;;;;;;0.40;0.20;;;;;;;8.82;100.00;100373.50;5056390;28;20108;-79
2023/10/22 03:28:42;;;;;;;0.28;0.20;;;;;;;9.06;100.00;100391.78;5039893;28;20063;-80
2023/10/22 03:31:08;;;;;;;0.63;0.20;;;;;;;8.32;100.00;100285.09;5073313;28;20073;-79
2023/10/22 03:33:34;;;;;;;0.40;0.20;;;;;;;8.67;100.00;100339.56;5072660;28;20044;-79
2023/10/22 03:36:04;;;;;;;0.40;0.25;;;;;;;9.05;100.00;100384.75;5073302;28;20024;-79
2023/10/22 03:38:30;;;;;;;0.15;0.15;;;;;;;9.03;100.00;100385.97;5056016;28;20119;-79
2023/10/22 03:41:03;;;;;;;0.57;0.20;;;;;;;9.05;100.00;100386.63;5055622;28;20445;-80
2023/10/22 03:43:30;;;;;;;0.28;0.20;;;;;;;8.98;100.00;100393.81;5073537;28;20067;-80
2023/10/22 03:45:57;;;;;;;0.68;0.20;;;;;;;9.09;100.00;100395.91;5072227;28;20032;-80
2023/10/22 03:48:24;;;;;;;1.90;0.20;;;;;;;9.01;100.00;100390.72;5071994;28;20036;-80
2023/10/22 03:50:50;;;;;;;0.35;0.20;;;;;;;9.08;100.00;100388.91;5059374;28;20063;-79
2023/10/22 03:53:15;;;;;;;0.98;0.30;;;;;;;9.04;100.00;100393.84;5075100;28;20060;-79
2023/10/22 03:55:41;;;;;;;0.50;0.28;;;;;;;9.07;100.00;100393.44;5072259;28;20063;-80
2023/10/22 03:58:06;;;;;;;0.20;0.20;;;;;;;9.19;100.00;100380.25;5072432;28;20045;-79
2023/10/22 04:00:32;;;;;;;1.05;0.30;;;;;;;8.93;100.00;100336.19;5056177;28;20059;-79
2023/10/22 04:02:58;;;;;;;0.32;0.20;;;;;;;9.07;100.00;100397.97;5071158;28;20039;-80
2023/10/22 04:05:24;;;;;;;0.63;0.22;;;;;;;9.10;100.00;100394.88;5071804;28;20032;-79
2023/10/22 04:07:49;;;;;;;0.73;0.20;;;;;;;9.29;100.00;100399.50;5054519;28;20475;-79
2023/10/22 04:10:15;;;;;;;1.33;0.20;;;;;;;9.14;100.00;100407.72;5071938;28;20561;-79
2023/10/22 04:12:41;;;;;;;0.20;0.10;;;;;;;9.24;100.00;100404.66;5055032;28;20777;-80
2023/10/22 04:15:07;;;;;;;0.50;0.20;;;;;;;9.09;100.00;100391.38;5055055;28;20024;-79
2023/10/22 04:17:33;;;;;;;0.30;0.30;;;;;;;9.01;100.00;100375.44;5038322;28;20549;-80
2023/10/22 04:19:58;;;;;;;0.98;0.20;;;;;;;9.06;100.00;100382.91;5071798;28;20067;-80
2023/10/22 04:22:24;;;;;;;0.95;0.20;;;;;;;8.93;100.00;100352.28;5071743;28;20090;-80
2023/10/22 04:24:49;;;;;;;0.28;0.20;;;;;;;8.53;100.00;100323.59;5073103;28;20505;-80
2023/10/22 04:27:14;;;;;;;0.20;0.20;;;;;;;9.15;100.00;100385.22;5071708;28;20433;-80
2023/10/22 04:29:42;;;;;;;0.47;0.30;;;;;;;9.13;100.00;100392.63;5055170;28;20418;-80
2023/10/22 04:32:07;;;;;;;1.00;0.20;;;;;;;9.10;100.00;100394.88;5071815;28;20059;-80
2023/10/22 04:34:33;;;;;;;0.50;0.30;;;;;;;9.06;100.00;100393.63;5055158;28;20058;-80
2023/10/22 04:36:58;;;;;;;0.20;0.20;;;;;;;9.18;100.00;100392.03;5072858;28;20459;-80
2023/10/22 04:39:24;;;;;;;0.30;0.28;;;;;;;9.09;100.00;100387.88;5055442;28;20028;-80
2023/10/22 04:41:50;;;;;;;0.40;0.20;;;;;;;8.89;100.00;100364.44;5071382;28;20048;-80
2023/10/22 04:44:16;;;;;;;0.65;0.20;;;;;;;9.26;100.00;100389.16;5056155;28;20619;-80
2023/10/22 04:46:41;;;;;;;0.82;0.20;;;;;;;9.20;100.00;100373.84;5056560;28;20032;-80
2023/10/22 04:49:07;;;;;;;0.65;0.30;;;;;;;9.31;100.00;100386.72;5072154;28;20469;-80
2023/10/22 04:51:32;;;;;;;0.45;0.28;;;;;;;9.12;100.00;100380.25;5072026;28;20037;-80
2023/10/22 04:53:57;;;;;;;0.55;0.28;;;;;;;8.98;100.00;100364.28;5038935;28;20491;-80
2023/10/22 04:56:28;;;;;;;0.68;0.30;;;;;;;9.16;100.00;100405.66;5046265;28;20063;-79
2023/10/22 04:58:54;;;;;;;0.40;0.25;;;;;;;9.29;100.00;100398.69;5062952;28;20102;-80
2023/10/22 05:01:19;;;;;;;1.35;0.30;;;;;;;9.39;100.00;100404.50;5070502;28;20032;-80
2023/10/22 05:03:45;;;;;;;0.50;0.20;;;;;;;9.11;100.00;100408.13;5061880;28;20417;-81
2023/10/22 05:06:11;;;;;;;0.40;0.20;;;;;;;9.20;100.00;100399.88;5056815;28;20043;-80
2023/10/22 05:08:37;;;;;;;0.32;0.30;;;;;;;9.15;100.00;100403.19;5051584;28;20024;-80
2023/10/22 05:11:05;;;;;;;1.05;0.30;;;;;;;9.22;100.00;100404.03;5052677;28;20120;-79
2023/10/22 05:13:31;;;;;;;0.75;0.20;;;;;;;9.14;100.00;100393.47;5056191;28;20074;-80
2023/10/22 05:15:57;;;;;;;0.13;0.13;;;;;;;9.20;100.00;100403.38;5068857;28;20115;-79
2023/10/22 05:18:23;;;;;;;0.50;0.20;;;;;;;8.90;100.00;100341.94;5042830;28;20503;-78
2023/10/22 05:20:48;;;;;;;0.20;0.20;;;;;;;9.11;100.00;100401.94;5063530;28;20048;-78
2023/10/22 05:23:14;;;;;;;0.90;0.10;;;;;;;9.20;100.00;100403.38;5050430;28;20040;-78
2023/10/22 05:25:41;;;;;;;0.20;0.20;;;;;;;9.37;100.00;100406.56;5067290;28;20025;-80
2023/10/22 05:28:06;;;;;;;0.57;0.25;;;;;;;9.17;100.00;100360.84;5068668;28;20046;-79
2023/10/22 05:30:32;;;;;;;0.63;0.20;;;;;;;9.20;100.00;100416.81;5050472;28;20033;-79
2023/10/22 05:32:57;;;;;;;0.40;0.20;;;;;;;9.11;100.00;100402.75;5067108;28;20432;-80
2023/10/22 05:35:24;;;;;;;0.30;0.20;;;;;;;9.17;100.00;100393.03;5066867;28;20036;-80
2023/10/22 05:37:51;;;;;;;1.33;0.68;;;;;;;9.38;100.00;100418.97;5051609;28;20036;-79
2023/10/22 05:40:17;;;;;;;0.17;0.17;;;;;;;9.24;100.00;100417.25;5050813;28;20029;-79
2023/10/22 05:42:42;;;;;;;1.50;0.22;;;;;;;9.37;100.00;100422.66;5050473;28;20040;-79
2023/10/22 05:45:09;;;;;;;0.40;0.10;;;;;;;9.18;100.00;100402.78;5053830;28;20028;-78
2023/10/22 05:47:35;;;;;;;0.45;0.20;;;;;;;9.48;100.00;100422.09;5070458;28;20099;-79
2023/10/22 05:50:01;;;;;;;0.35;0.30;;;;;;;9.50;100.00;100414.66;5069563;28;20127;-79
2023/10/22 05:52:28;;;;;;;0.40;0.30;;;;;;;9.42;100.00;100420.22;5069479;28;20471;-79
2023/10/22 05:54:54;;;;;;;0.90;0.30;;;;;;;9.36;100.00;100413.78;5069389;28;20021;-79
2023/10/22 05:57:21;;;;;;;0.88;0.20;;;;;;;9.57;100.00;100425.41;5072807;28;20078;-78
2023/10/22 05:59:47;;;;;;;0.20;0.20;;;;;;;9.51;100.00;100418.19;5072069;28;20058;-78
2023/10/22 06:02:12;;;;;;;0.82;0.20;;;;;;;9.44;100.00;100420.84;5052957;28;20078;-77
2023/10/22 06:04:38;;;;;;;0.63;0.20;;;;;;;9.57;100.00;100423.59;5070188;28;20489;-78
2023/10/22 06:07:04;;;;;;;0.93;0.30;;;;;;;9.29;100.00;100380.72;5053760;28;20043;-79
2023/10/22 06:09:29;;;;;;;0.52;0.30;;;;;;;9.52;100.00;100423.34;5069991;28;20369;-79
2023/10/22 06:11:55;;;;;;;0.70;0.20;;;;;;;9.55;100.00;100424.81;5036173;28;20475;-79
2023/10/22 06:14:20;;;;;;;0.50;0.20;;;;;;;8.84;100.00;100337.41;5052967;28;20368;-79
2023/10/22 06:16:45;;;;;;;0.40;0.20;;;;;;;9.57;100.00;100420.03;5052524;28;20035;-79
2023/10/22 06:19:13;;;;;;;1.48;0.20;;;;;;;9.56;100.00;100423.78;5034167;28;20495;-78
2023/10/22 06:21:38;;;;;;;1.00;0.20;;;;;;;9.44;100.00;100426.22;5049992;28;20085;-80
2023/10/22 06:24:05;;;;;;;0.65;0.30;;;;;;;9.44;100.00;100409.25;5034312;28;20131;-79
2023/10/22 06:26:30;;;;;;;0.43;0.17;;;;;;;9.52;100.00;100425.22;5074397;28;20032;-80
2023/10/22 06:28:56;;;;;;;1.83;0.30;;;;;;;9.63;100.00;100424.63;5073955;28;20367;-80
2023/10/22 06:31:23;;;;;;;2.92;0.30;;;;;;;9.61;100.00;100405.22;5040977;28;20090;-80
2023/10/22 06:33:48;;;;;;;0.95;0.30;;;;;;;9.45;100.00;100417.13;5075669;28;20021;-79
2023/10/22 06:36:18;;;;;;;0.68;0.20;;;;;;;9.47;100.00;100424.97;5055919;28;20531;-79
2023/10/22 06:38:45;;;;;;;2.08;0.40;;;;;;;9.43;100.00;100413.00;5071855;28;20033;-80
2023/10/22 06:41:26;;;;;;;1.58;0.70;;;;;;;9.47;100.00;100420.47;5070671;28;20039;-80
2023/10/22 06:43:53;;;;;;;2.25;0.57;;;;;;;9.65;100.00;100406.44;5069842;28;20040;-80
2023/10/22 06:46:20;;;;;;;0.90;0.45;;;;;;;9.55;100.00;100381.84;5054413;28;20035;-79
2023/10/22 06:48:47;;;;;;;1.48;0.70;;;;;;;9.54;100.00;100401.69;5071704;28;20107;-80
2023/10/22 06:51:17;;;;;;;4.13;0.75;;;;;;;9.63;100.00;100419.25;5055673;28;20032;-80
2023/10/22 06:53:44;;;;;;;2.25;0.50;;;;;;;9.50;100.00;100416.53;5053164;28;20036;-80
2023/10/22 06:56:11;;;;;;;3.17;0.50;;;;;;;9.81;100.00;100416.00;5053031;28;20025;-79
2023/10/22 06:58:37;;;;;;;1.17;0.50;;;;;;;9.63;100.00;100420.09;5070490;28;20454;-79
2023/10/22 07:01:09;;;;;;;2.67;0.43;;;;;;;9.81;100.00;100419.50;5071022;28;20039;-80
2023/10/22 07:03:36;;;;;;;1.00;0.50;;;;;;;9.83;100.00;100409.41;5055265;28;20039;-80
2023/10/22 07:06:02;;;;;;;3.17;0.55;;;;;;;9.80;100.00;100417.88;5072713;28;20020;-79
2023/10/22 07:08:28;;;;;;;0.40;0.40;;;;;;;9.75;100.00;100404.19;5071842;28;20441;-79
2023/10/22 07:10:54;;;;;;;3.72;3.38;;;;;;;9.75;100.00;100417.63;5073226;28;20479;-80
2023/10/22 07:13:20;;;;;;;3.30;2.05;;;;;;;9.98;100.00;100417.25;5073051;28;20020;-79
2023/10/22 07:15:47;;;;;;;21.70;19.35;;;;;;;9.91;100.00;100429.88;5040291;28;20090;-79
2023/10/22 07:18:13;;;;;;;13.95;12.50;;;;;;;9.62;100.00;100398.78;5073727;28;20040;-79
2023/10/22 07:20:38;;;;;;;2.47;1.80;;;;;;;9.75;100.00;100406.88;5056760;28;20035;-79
2023/10/22 07:23:04;;;;;;;2.47;2.28;;;;;;;10.08;100.00;100422.25;5039077;28;20040;-80
2023/10/22 07:25:29;;;;;;;5.30;4.80;;;;;;;10.23;100.00;100406.75;5042456;28;20044;-79
2023/10/22 07:27:55;;;;;;;5.07;3.30;;;;;;;10.27;100.00;100416.09;5057222;28;20032;-79
2023/10/22 07:30:20;;;;;;;7.38;6.78;;;;;;;10.31;100.00;100414.63;5056326;28;20070;-79
2023/10/22 07:32:50;;;;;;;1.27;1.17;;;;;;;10.28;100.00;100409.66;5073269;28;20032;-80
2023/10/22 07:35:16;;;;;;;3.05;0.80;;;;;;;10.38;100.00;100420.00;5055017;28;20487;-79
2023/10/22 07:37:44;;;;;;;2.67;0.90;;;;;;;10.38;100.00;100419.19;5053311;28;20134;-79
2023/10/22 07:40:13;;;;;;;2.05;1.30;;;;;;;10.10;100.00;100425.56;5054009;28;20037;-79
2023/10/22 07:42:43;;;;;;;0.90;0.70;;;;;;;10.08;100.00;100395.34;5051196;28;20036;-80
2023/10/22 07:45:09;;;;;;;3.03;1.63;;;;;;;10.09;100.00;100405.06;5070461;28;20054;-79
2023/10/22 07:47:35;;;;;;;1.52;0.73;;;;;;;10.08;100.00;100419.56;5070044;28;20509;-79
2023/10/22 07:50:05;;;;;;;1.55;0.80;;;;;;;9.97;100.00;100407.56;5070070;28;20041;-79
2023/10/22 07:52:31;;;;;;;3.00;0.82;;;;;;;10.14;100.00;100425.97;5055366;28;20586;-80
2023/10/22 07:54:57;;;;;;;3.08;0.82;;;;;;;10.16;100.00;100411.28;5055530;28;20029;-80
2023/10/22 07:57:26;;;;;;;1.00;0.60;;;;;;;10.14;100.00;100393.72;5055429;28;20443;-79
2023/10/22 07:59:52;;;;;;;2.17;0.80;;;;;;;10.32;100.00;100421.66;5074551;28;20506;-79
2023/10/22 08:02:17;;;;;;;1.23;0.70;;;;;;;10.39;100.00;100426.22;5073771;28;20032;-80
2023/10/22 08:04:42;;;;;;;2.35;0.90;;;;;;;10.39;100.00;100420.84;5039866;28;20540;-80
2023/10/22 08:07:08;;;;;;;2.05;0.90;;;;;;;10.28;100.00;100382.78;5057392;28;20032;-80
2023/10/22 08:09:33;;;;;;;1.73;0.75;;;;;;;10.44;100.00;100423.75;5057208;28;20028;-80
2023/10/22 08:11:59;;;;;;;1.23;0.70;;;;;;;10.39;100.00;100394.75;5073567;28;20034;-79
2023/10/22 08:14:27;;;;;;;2.60;0.80;;;;;;;10.57;100.00;100424.56;5073214;28;20035;-79
2023/10/22 08:16:52;;;;;;;377.08;216.05;;;;;;;10.46;100.00;100416.28;5071931;28;20025;-78
2023/10/22 08:19:18;;;;;;;192.07;119.75;;;;;;;10.60;100.00;100423.31;5055799;28;20556;-79
2023/10/22 08:21:43;;;;;;;48.95;34.50;;;;;;;10.28;100.00;100388.16;5055177;28;20433;-79
2023/10/22 08:24:09;;;;;;;9.23;7.60;;;;;;;10.54;100.00;100418.78;5042530;28;20063;-79
2023/10/22 08:26:34;;;;;;;2.88;2.55;;;;;;;10.60;100.00;100417.13;5041890;28;20032;-81
2023/10/22 08:29:00;;;;;;;5.82;4.40;;;;;;;10.67;100.00;100424.13;5048697;28;20028;-82
2023/10/22 08:31:25;;;;;;;2.83;1.70;;;;;;;10.78;100.00;100426.19;5073544;28;20033;-80
2023/10/22 08:33:51;;;;;;;2.65;1.35;;;;;;;10.73;100.00;100417.09;5055193;28;20665;-81
2023/10/22 08:36:17;;;;;;;3.72;1.30;;;;;;;10.92;100.00;100434.22;5058064;28;20098;-81
2023/10/22 08:38:43;;;;;;;6.80;3.90;;;;;;;10.85;100.00;100428.03;5072015;28;20123;-79
2023/10/22 08:41:21;;;;;;;6.35;4.43;;;;;;;10.94;100.00;100426.78;5038886;28;20184;-79
2023/10/22 08:43:48;;;;;;;3.92;2.80;;;;;;;10.90;100.00;100429.06;5071338;28;20432;-79
2023/10/22 08:46:13;;;;;;;14.20;11.05;;;;;;;10.93;100.00;100428.66;5071311;28;20053;-79
2023/10/22 08:48:39;;;;;;;6.95;3.70;;;;;;;11.17;100.00;100435.19;5073678;28;20485;-80
2023/10/22 08:51:06;;;;;;;7.68;4.57;;;;;;;11.17;100.00;100435.19;5074773;28;20036;-79
2023/10/22 08:53:32;;;;;;;5.93;3.03;;;;;;;11.17;100.00;100435.19;5072133;28;20016;-79
2023/10/22 08:56:00;;;;;;;3.47;2.05;;;;;;;11.10;100.00;100426.31;5037748;28;20040;-79
2023/10/22 08:58:26;;;;;;;3.92;1.92;;;;;;;11.04;100.00;100430.69;5072060;28;20057;-79
2023/10/22 09:00:52;;;;;;;6.30;5.53;;;;;;;11.18;100.00;100423.38;5071076;28;20045;-79
2023/10/22 09:03:18;;;;;;;6.25;3.03;;;;;;;11.09;100.00;100415.75;5070650;28;20043;-79
2023/10/22 09:05:45;;;;;;;3.90;1.98;;;;;;;11.00;100.00;100412.47;5070809;28;20035;-79
2023/10/22 09:08:11;;;;;;;4.47;1.48;;;;;;;10.88;100.00;100414.97;5054499;28;20036;-79
2023/10/22 09:10:38;;;;;;;3.80;1.90;;;;;;;11.23;100.00;100433.53;5042032;28;20046;-79
2023/10/22 09:13:06;;;;;;;4.18;1.90;;;;;;;11.53;100.00;100423.88;5074559;28;20024;-79
2023/10/22 09:15:45;;;;;;;3.45;2.05;;;;;;;11.14;100.00;100395.22;5070723;28;20033;-79
2023/10/22 09:18:12;;;;;;;3.08;2.17;;;;;;;11.03;100.00;100358.22;5074134;28;20021;-79
2023/10/22 09:20:38;;;;;;;3.67;2.30;;;;;;;11.25;100.00;100413.41;5073572;28;20029;-79
2023/10/22 09:23:18;;;;;;;2.80;1.75;;;;;;;10.91;100.00;100421.81;5076477;28;20384;-79
2023/10/22 09:25:48;;;;;;;3.78;2.47;;;;;;;11.17;100.00;100405.56;5072186;28;20491;-79
2023/10/22 09:28:24;;;;;;;3.40;2.58;;;;;;;11.29;100.00;100421.88;5054705;28;20036;-79
2023/10/22 09:31:01;;;;;;;4.40;2.72;;;;;;;11.29;100.00;100422.75;5059875;28;20451;-79
2023/10/22 09:33:36;;;;;;;4.00;2.40;;;;;;;11.11;100.00;100421.75;5075662;28;20021;-79
2023/10/22 09:36:06;;;;;;;3.72;2.33;;;;;;;11.43;100.00;100430.75;5070549;28;20032;-79
2023/10/22 09:38:46;;;;;;;3.25;1.80;;;;;;;11.25;100.00;100423.34;5071717;28;20032;-80
2023/10/22 09:41:33;;;;;;;4.88;2.10;;;;;;;11.19;100.00;100416.13;5071806;28;20115;-79
2023/10/22 09:44:00;;;;;;;4.13;2.47;;;;;;;11.09;100.00;100400.41;5071800;28;20089;-79
2023/10/22 09:46:30;;;;;;;4.22;2.35;;;;;;;11.20;100.00;100413.22;5070229;28;20050;-79
2023/10/22 09:48:58;;;;;;;4.57;2.00;;;;;;;11.27;100.00;100411.34;5071527;28;20040;-79
2023/10/22 09:51:30;;;;;;;4.70;2.50;;;;;;;11.33;100.00;100403.47;5070639;28;20425;-79
2023/10/22 09:53:56;;;;;;;3.40;1.65;;;;;;;11.11;100.00;100382.19;5070500;28;20115;-78
2023/10/22 09:56:23;;;;;;;3.92;1.88;;;;;;;11.47;100.00;100405.88;5053278;28;20123;-79
2023/10/22 09:59:10;;;;;;;4.20;2.17;;;;;;;11.46;100.00;100408.78;5053577;28;20028;-79
2023/10/22 10:01:37;;;;;;;2.97;1.85;;;;;;;11.48;100.00;100409.38;5069308;28;20379;-78
2023/10/22 10:04:05;;;;;;;12.70;8.77;;;;;;;11.43;100.00;100418.13;5069742;28;20115;-79
2023/10/22 10:06:31;;;;;;;22.02;13.23;;;;;;;11.33;100.00;100411.53;5073157;28;20110;-78
2023/10/22 10:08:57;;;;;;;10.07;5.63;;;;;;;11.30;100.00;100391.25;5070938;28;20415;-78
2023/10/22 10:11:24;;;;;;;28.77;16.27;;;;;;;11.17;100.00;100386.72;5073380;28;20024;-78
2023/10/22 10:13:50;;;;;;;48.13;25.30;;;;;;;11.40;100.00;100385.38;5074879;28;20073;-78
2023/10/22 10:16:15;;;;;;;11.45;8.32;;;;;;;11.31;100.00;100392.88;5054679;28;20032;-78
2023/10/22 10:19:00;;;;;;;5.47;3.53;;;;;;;11.59;100.00;100399.78;5036574;28;20498;-78
2023/10/22 10:21:36;;;;;;;2.90;2.03;;;;;;;11.56;100.00;100400.25;5071367;28;20025;-78
2023/10/22 10:24:19;;;;;;;3.33;1.95;;;;;;;11.74;100.00;100403.03;5071179;28;20080;-79
2023/10/22 10:26:46;;;;;;;2.20;1.83;;;;;;;11.61;100.00;100405.78;5069543;28;20031;-77
2023/10/22 10:29:20;;;;;;;2.10;1.20;;;;;;;11.51;100.00;100407.06;5053429;28;20407;-77
2023/10/22 10:31:53;;;;;;;5.97;1.38;;;;;;;11.55;100.00;100369.75;5073161;28;20409;-78
2023/10/22 10:34:24;;;;;;;1.30;0.98;;;;;;;11.72;100.00;100400.56;5071558;28;20013;-78
2023/10/22 10:36:50;;;;;;;1.48;1.00;;;;;;;11.81;100.00;100398.41;5071035;28;20105;-78
2023/10/22 10:39:42;;;;;;;2.25;1.00;;;;;;;11.73;100.00;100394.13;5036876;28;20028;-78
2023/10/22 10:42:10;;;;;;;3.35;1.30;;;;;;;11.67;100.00;100373.41;5070834;28;20040;-78
2023/10/22 10:44:54;;;;;;;2.47;0.85;;;;;;;11.84;100.00;100391.78;5038650;28;20024;-78
2023/10/22 10:47:22;;;;;;;1.30;0.90;;;;;;;11.77;100.00;100381.03;5071558;28;20107;-78
2023/10/22 10:50:06;;;;;;;1.33;0.93;;;;;;;11.71;100.00;100381.88;5070150;28;20283;-78
2023/10/22 10:52:38;;;;;;;1.50;1.30;;;;;;;11.98;100.00;100387.97;5069451;28;20566;-78
2023/10/22 10:55:18;;;;;;;1.98;1.20;;;;;;;12.07;100.00;100385.84;5077227;28;20515;-78
2023/10/22 10:57:53;;;;;;;1.23;0.80;;;;;;;12.23;100.00;100391.50;5071788;28;20041;-78
2023/10/22 11:00:32;;;;;;;1.13;0.93;;;;;;;12.37;100.00;100394.09;5069496;28;20028;-78
2023/10/22 11:03:03;;;;;;;2.08;0.90;;;;;;;12.40;100.00;100380.16;5070384;28;20024;-79
2023/10/22 11:05:39;;;;;;;1.08;0.93;;;;;;;12.20;100.00;100370.38;5054910;28;20483;-78
2023/10/22 11:08:25;;;;;;;1.10;0.90;;;;;;;12.36;100.00;100392.44;5069839;28;20173;-78
2023/10/22 11:10:50;;;;;;;2.25;0.90;;;;;;;12.45;100.00;100383.03;5052653;28;20037;-78
2023/10/22 11:13:25;;;;;;;3.70;1.00;;;;;;;12.43;100.00;100399.44;5055556;28;20078;-79
2023/10/22 11:15:53;;;;;;;1.40;0.88;;;;;;;12.15;100.00;100372.91;5073059;28;20060;-78
2023/10/22 11:18:19;;;;;;;2.15;1.00;;;;;;;12.32;100.00;100393.94;5040879;28;20032;-80
2023/10/22 11:20:56;;;;;;;1.42;0.85;;;;;;;12.47;100.00;100386.31;5056967;28;20051;-78
2023/10/22 11:23:22;;;;;;;1.95;0.80;;;;;;;12.46;100.00;100388.19;5074291;28;20075;-77